sensor_id;sensor_type;location;lat;lon;timestamp;temperature;humidity
55771;DHT22;41687;-33.234;-60.334;2022-07-29T00:00:58;11.30;55.30
55771;DHT22;41687;-33.234;-60.334;2022-07-29T00:03:26;11.20;55.50
55771;DHT22;41687;-33.234;-60.334;2022-07-29T00:05:54;11.20;55.70
55771;DHT22;41687;-33.234;-60.334;2022-07-29T00:08:22;11.20;55.70
55771;DHT22;41687;-33.234;-60.334;2022-07-29T00:10:51;11.10;55.90
55771;DHT22;41687;-33.234;-60.334;2022-07-29T00:13:18;11.10;56.00
55771;DHT22;41687;-33.234;-60.334;2022-07-29T00:15:46;11.10;55.90
55771;DHT22;41687;-33.234;-60.334;2022-07-29T00:18:14;11.10;56.20
55771;DHT22;41687;-33.234;-60.334;2022-07-29T00:20:42;11.00;56.30
55771;DHT22;41687;-33.234;-60.334;2022-07-29T00:23:10;10.90;56.60
55771;DHT22;41687;-33.234;-60.334;2022-07-29T00:25:38;10.90;56.60
55771;DHT22;41687;-33.234;-60.334;2022-07-29T00:28:05;10.80;56.60
55771;DHT22;41687;-33.234;-60.334;2022-07-29T00:30:34;10.80;56.70
55771;DHT22;41687;-33.234;-60.334;2022-07-29T00:33:01;10.80;56.50
55771;DHT22;41687;-33.234;-60.334;2022-07-29T00:35:29;10.80;56.60
55771;DHT22;41687;-33.234;-60.334;2022-07-29T00:38:18;10.70;56.50
55771;DHT22;41687;-33.234;-60.334;2022-07-29T00:40:47;10.70;57.10
55771;DHT22;41687;-33.234;-60.334;2022-07-29T00:43:15;10.80;56.70
55771;DHT22;41687;-33.234;-60.334;2022-07-29T00:45:44;10.70;56.80
55771;DHT22;41687;-33.234;-60.334;2022-07-29T00:48:12;10.70;56.70
55771;DHT22;41687;-33.234;-60.334;2022-07-29T00:50:40;10.60;56.90
55771;DHT22;41687;-33.234;-60.334;2022-07-29T00:53:08;10.60;57.10
55771;DHT22;41687;-33.234;-60.334;2022-07-29T00:55:37;10.50;57.20
55771;DHT22;41687;-33.234;-60.334;2022-07-29T00:58:05;10.50;57.40
55771;DHT22;41687;-33.234;-60.334;2022-07-29T01:00:34;10.50;57.70
55771;DHT22;41687;-33.234;-60.334;2022-07-29T01:03:03;10.50;57.50
55771;DHT22;41687;-33.234;-60.334;2022-07-29T01:05:32;10.50;58.00
55771;DHT22;41687;-33.234;-60.334;2022-07-29T01:08:00;10.50;58.10
55771;DHT22;41687;-33.234;-60.334;2022-07-29T01:10:29;10.40;58.00
55771;DHT22;41687;-33.234;-60.334;2022-07-29T01:12:58;10.40;58.00
55771;DHT22;41687;-33.234;-60.334;2022-07-29T01:15:28;10.30;58.50
55771;DHT22;41687;-33.234;-60.334;2022-07-29T01:21:06;10.30;58.30
55771;DHT22;41687;-33.234;-60.334;2022-07-29T01:23:52;10.30;58.60
55771;DHT22;41687;-33.234;-60.334;2022-07-29T01:32:03;10.20;59.40
55771;DHT22;41687;-33.234;-60.334;2022-07-29T01:34:45;10.10;58.90
55771;DHT22;41687;-33.234;-60.334;2022-07-29T01:39:58;10.10;59.40
55771;DHT22;41687;-33.234;-60.334;2022-07-29T01:42:41;10.00;59.40
55771;DHT22;41687;-33.234;-60.334;2022-07-29T01:48:21;10.00;59.50
55771;DHT22;41687;-33.234;-60.334;2022-07-29T01:51:00;10.00;59.70
55771;DHT22;41687;-33.234;-60.334;2022-07-29T01:53:38;10.00;60.00
55771;DHT22;41687;-33.234;-60.334;2022-07-29T01:56:10;10.00;60.00
55771;DHT22;41687;-33.234;-60.334;2022-07-29T01:58:42;10.00;60.00
55771;DHT22;41687;-33.234;-60.334;2022-07-29T02:01:11;10.00;59.90
55771;DHT22;41687;-33.234;-60.334;2022-07-29T02:03:44;9.90;60.10
55771;DHT22;41687;-33.234;-60.334;2022-07-29T02:06:14;9.90;60.70
55771;DHT22;41687;-33.234;-60.334;2022-07-29T02:08:45;9.90;60.40
55771;DHT22;41687;-33.234;-60.334;2022-07-29T02:11:14;9.90;60.20
55771;DHT22;41687;-33.234;-60.334;2022-07-29T02:13:43;9.80;60.00
55771;DHT22;41687;-33.234;-60.334;2022-07-29T02:16:12;9.80;60.50
55771;DHT22;41687;-33.234;-60.334;2022-07-29T02:18:43;9.80;60.50
55771;DHT22;41687;-33.234;-60.334;2022-07-29T02:21:13;9.70;60.40
55771;DHT22;41687;-33.234;-60.334;2022-07-29T02:23:45;9.60;60.50
55771;DHT22;41687;-33.234;-60.334;2022-07-29T02:26:16;9.60;60.90
55771;DHT22;41687;-33.234;-60.334;2022-07-29T02:28:46;9.60;60.80
55771;DHT22;41687;-33.234;-60.334;2022-07-29T02:31:16;9.50;61.30
55771;DHT22;41687;-33.234;-60.334;2022-07-29T02:33:46;9.40;61.30
55771;DHT22;41687;-33.234;-60.334;2022-07-29T02:36:16;9.40;61.20
55771;DHT22;41687;-33.234;-60.334;2022-07-29T02:38:45;9.40;60.90
55771;DHT22;41687;-33.234;-60.334;2022-07-29T02:41:26;9.40;61.10
55771;DHT22;41687;-33.234;-60.334;2022-07-29T02:44:09;9.30;61.40
55771;DHT22;41687;-33.234;-60.334;2022-07-29T02:52:01;9.30;61.30
55771;DHT22;41687;-33.234;-60.334;2022-07-29T02:54:46;9.20;61.00
55771;DHT22;41687;-33.234;-60.334;2022-07-29T02:59:58;9.10;61.80
55771;DHT22;41687;-33.234;-60.334;2022-07-29T03:02:37;9.00;62.00
55771;DHT22;41687;-33.234;-60.334;2022-07-29T03:05:09;9.00;61.70
55771;DHT22;41687;-33.234;-60.334;2022-07-29T03:07:39;9.00;61.90
55771;DHT22;41687;-33.234;-60.334;2022-07-29T03:10:08;9.00;61.90
55771;DHT22;41687;-33.234;-60.334;2022-07-29T03:12:36;8.90;62.10
55771;DHT22;41687;-33.234;-60.334;2022-07-29T03:15:04;8.90;61.80
55771;DHT22;41687;-33.234;-60.334;2022-07-29T03:17:33;8.80;61.70
55771;DHT22;41687;-33.234;-60.334;2022-07-29T03:20:02;8.90;61.50
55771;DHT22;41687;-33.234;-60.334;2022-07-29T03:22:30;8.80;61.90
55771;DHT22;41687;-33.234;-60.334;2022-07-29T03:24:58;8.80;61.50
55771;DHT22;41687;-33.234;-60.334;2022-07-29T03:27:34;8.80;62.00
55771;DHT22;41687;-33.234;-60.334;2022-07-29T03:30:02;8.80;62.10
55771;DHT22;41687;-33.234;-60.334;2022-07-29T03:32:30;8.80;61.70
55771;DHT22;41687;-33.234;-60.334;2022-07-29T03:34:58;8.80;62.10
55771;DHT22;41687;-33.234;-60.334;2022-07-29T03:37:26;8.80;62.30
55771;DHT22;41687;-33.234;-60.334;2022-07-29T03:39:56;8.80;62.20
55771;DHT22;41687;-33.234;-60.334;2022-07-29T03:42:31;8.80;62.20
55771;DHT22;41687;-33.234;-60.334;2022-07-29T03:45:06;8.70;62.30
55771;DHT22;41687;-33.234;-60.334;2022-07-29T03:47:40;8.60;62.20
55771;DHT22;41687;-33.234;-60.334;2022-07-29T03:50:11;8.60;62.40
55771;DHT22;41687;-33.234;-60.334;2022-07-29T03:52:40;8.50;62.60
55771;DHT22;41687;-33.234;-60.334;2022-07-29T03:55:09;8.50;62.40
55771;DHT22;41687;-33.234;-60.334;2022-07-29T03:57:38;8.50;62.40
55771;DHT22;41687;-33.234;-60.334;2022-07-29T04:00:07;8.50;62.20
55771;DHT22;41687;-33.234;-60.334;2022-07-29T04:02:36;8.40;62.30
55771;DHT22;41687;-33.234;-60.334;2022-07-29T04:05:05;8.30;62.30
55771;DHT22;41687;-33.234;-60.334;2022-07-29T04:07:40;8.20;62.40
55771;DHT22;41687;-33.234;-60.334;2022-07-29T04:10:08;8.20;62.30
55771;DHT22;41687;-33.234;-60.334;2022-07-29T04:12:36;8.20;62.40
55771;DHT22;41687;-33.234;-60.334;2022-07-29T04:15:06;8.10;62.60
55771;DHT22;41687;-33.234;-60.334;2022-07-29T04:17:35;8.10;62.90
55771;DHT22;41687;-33.234;-60.334;2022-07-29T04:20:03;8.00;62.70
55771;DHT22;41687;-33.234;-60.334;2022-07-29T04:22:31;8.00;63.10
55771;DHT22;41687;-33.234;-60.334;2022-07-29T04:24:59;8.10;62.90
55771;DHT22;41687;-33.234;-60.334;2022-07-29T04:27:27;8.10;63.10
55771;DHT22;41687;-33.234;-60.334;2022-07-29T04:29:55;8.00;62.90
55771;DHT22;41687;-33.234;-60.334;2022-07-29T04:32:26;8.00;62.70
55771;DHT22;41687;-33.234;-60.334;2022-07-29T04:34:54;8.00;62.70
55771;DHT22;41687;-33.234;-60.334;2022-07-29T04:37:22;8.00;63.00
55771;DHT22;41687;-33.234;-60.334;2022-07-29T04:39:50;8.00;63.10
55771;DHT22;41687;-33.234;-60.334;2022-07-29T04:42:17;8.00;62.70
55771;DHT22;41687;-33.234;-60.334;2022-07-29T04:44:45;8.10;63.00
55771;DHT22;41687;-33.234;-60.334;2022-07-29T04:47:13;8.00;62.80
55771;DHT22;41687;-33.234;-60.334;2022-07-29T04:49:41;8.00;62.80
55771;DHT22;41687;-33.234;-60.334;2022-07-29T04:52:09;7.90;63.10
55771;DHT22;41687;-33.234;-60.334;2022-07-29T04:54:37;7.90;63.30
55771;DHT22;41687;-33.234;-60.334;2022-07-29T04:57:04;7.90;63.10
55771;DHT22;41687;-33.234;-60.334;2022-07-29T04:59:32;7.90;63.20
55771;DHT22;41687;-33.234;-60.334;2022-07-29T05:02:00;7.90;63.00
55771;DHT22;41687;-33.234;-60.334;2022-07-29T05:04:28;7.90;63.00
55771;DHT22;41687;-33.234;-60.334;2022-07-29T05:06:55;7.90;63.10
55771;DHT22;41687;-33.234;-60.334;2022-07-29T05:09:23;7.80;63.20
55771;DHT22;41687;-33.234;-60.334;2022-07-29T05:11:51;7.70;63.30
55771;DHT22;41687;-33.234;-60.334;2022-07-29T05:14:19;7.80;63.50
55771;DHT22;41687;-33.234;-60.334;2022-07-29T05:16:46;7.70;63.60
55771;DHT22;41687;-33.234;-60.334;2022-07-29T05:19:16;7.70;63.60
55771;DHT22;41687;-33.234;-60.334;2022-07-29T05:21:45;7.70;63.60
55771;DHT22;41687;-33.234;-60.334;2022-07-29T05:24:12;7.70;63.90
55771;DHT22;41687;-33.234;-60.334;2022-07-29T05:26:40;7.70;63.60
55771;DHT22;41687;-33.234;-60.334;2022-07-29T05:29:09;7.70;63.40
55771;DHT22;41687;-33.234;-60.334;2022-07-29T05:31:38;7.70;63.60
55771;DHT22;41687;-33.234;-60.334;2022-07-29T05:34:05;7.70;63.70
55771;DHT22;41687;-33.234;-60.334;2022-07-29T05:36:33;7.70;63.40
55771;DHT22;41687;-33.234;-60.334;2022-07-29T05:39:01;7.60;63.50
55771;DHT22;41687;-33.234;-60.334;2022-07-29T05:41:31;7.50;63.80
55771;DHT22;41687;-33.234;-60.334;2022-07-29T05:43:59;7.50;63.70
55771;DHT22;41687;-33.234;-60.334;2022-07-29T05:46:27;7.40;63.90
55771;DHT22;41687;-33.234;-60.334;2022-07-29T05:48:55;7.50;63.80
55771;DHT22;41687;-33.234;-60.334;2022-07-29T05:51:23;7.40;63.60
55771;DHT22;41687;-33.234;-60.334;2022-07-29T05:53:51;7.30;63.80
55771;DHT22;41687;-33.234;-60.334;2022-07-29T05:56:18;7.20;63.50
55771;DHT22;41687;-33.234;-60.334;2022-07-29T05:58:46;7.20;63.20
55771;DHT22;41687;-33.234;-60.334;2022-07-29T06:01:14;7.10;63.40
55771;DHT22;41687;-33.234;-60.334;2022-07-29T06:03:43;7.10;63.70
55771;DHT22;41687;-33.234;-60.334;2022-07-29T06:06:11;7.00;63.30
55771;DHT22;41687;-33.234;-60.334;2022-07-29T06:08:39;7.00;63.60
55771;DHT22;41687;-33.234;-60.334;2022-07-29T06:11:07;6.90;63.50
55771;DHT22;41687;-33.234;-60.334;2022-07-29T06:13:35;6.90;63.80
55771;DHT22;41687;-33.234;-60.334;2022-07-29T06:16:03;6.80;64.20
55771;DHT22;41687;-33.234;-60.334;2022-07-29T06:18:31;6.80;64.30
55771;DHT22;41687;-33.234;-60.334;2022-07-29T06:20:59;6.80;64.50
55771;DHT22;41687;-33.234;-60.334;2022-07-29T06:23:26;6.80;64.20
55771;DHT22;41687;-33.234;-60.334;2022-07-29T06:25:54;6.70;63.90
55771;DHT22;41687;-33.234;-60.334;2022-07-29T06:28:22;6.70;64.00
55771;DHT22;41687;-33.234;-60.334;2022-07-29T06:30:50;6.70;64.40
55771;DHT22;41687;-33.234;-60.334;2022-07-29T06:33:21;6.70;64.50
55771;DHT22;41687;-33.234;-60.334;2022-07-29T06:35:49;6.70;64.50
55771;DHT22;41687;-33.234;-60.334;2022-07-29T06:38:17;6.60;64.70
55771;DHT22;41687;-33.234;-60.334;2022-07-29T06:40:45;6.50;64.50
55771;DHT22;41687;-33.234;-60.334;2022-07-29T06:43:35;6.40;65.00
55771;DHT22;41687;-33.234;-60.334;2022-07-29T06:46:13;6.40;64.90
55771;DHT22;41687;-33.234;-60.334;2022-07-29T06:48:42;6.40;65.00
55771;DHT22;41687;-33.234;-60.334;2022-07-29T06:51:11;6.40;64.90
55771;DHT22;41687;-33.234;-60.334;2022-07-29T06:53:39;6.40;65.00
55771;DHT22;41687;-33.234;-60.334;2022-07-29T06:56:07;6.30;64.90
55771;DHT22;41687;-33.234;-60.334;2022-07-29T06:58:36;6.30;65.20
55771;DHT22;41687;-33.234;-60.334;2022-07-29T07:01:05;6.30;65.10
55771;DHT22;41687;-33.234;-60.334;2022-07-29T07:03:33;6.30;65.20
55771;DHT22;41687;-33.234;-60.334;2022-07-29T07:06:01;6.30;65.40
55771;DHT22;41687;-33.234;-60.334;2022-07-29T07:08:29;6.20;65.10
55771;DHT22;41687;-33.234;-60.334;2022-07-29T07:10:57;6.20;65.20
55771;DHT22;41687;-33.234;-60.334;2022-07-29T07:13:25;6.20;65.40
55771;DHT22;41687;-33.234;-60.334;2022-07-29T07:15:53;6.30;65.30
55771;DHT22;41687;-33.234;-60.334;2022-07-29T07:18:22;6.20;65.10
55771;DHT22;41687;-33.234;-60.334;2022-07-29T07:20:49;6.20;65.10
55771;DHT22;41687;-33.234;-60.334;2022-07-29T07:23:17;6.20;64.90
55771;DHT22;41687;-33.234;-60.334;2022-07-29T07:25:45;6.20;65.20
55771;DHT22;41687;-33.234;-60.334;2022-07-29T07:28:13;6.20;65.20
55771;DHT22;41687;-33.234;-60.334;2022-07-29T07:30:41;6.20;65.30
55771;DHT22;41687;-33.234;-60.334;2022-07-29T07:33:08;6.20;64.90
55771;DHT22;41687;-33.234;-60.334;2022-07-29T07:35:36;6.10;64.80
55771;DHT22;41687;-33.234;-60.334;2022-07-29T07:38:04;6.10;65.00
55771;DHT22;41687;-33.234;-60.334;2022-07-29T07:40:33;6.10;65.00
55771;DHT22;41687;-33.234;-60.334;2022-07-29T07:43:00;6.00;65.00
55771;DHT22;41687;-33.234;-60.334;2022-07-29T07:45:28;6.00;65.10
55771;DHT22;41687;-33.234;-60.334;2022-07-29T07:47:57;6.00;65.10
55771;DHT22;41687;-33.234;-60.334;2022-07-29T07:50:25;5.90;65.30
55771;DHT22;41687;-33.234;-60.334;2022-07-29T07:52:55;5.90;65.40
55771;DHT22;41687;-33.234;-60.334;2022-07-29T07:55:27;5.90;65.40
55771;DHT22;41687;-33.234;-60.334;2022-07-29T07:57:55;6.00;65.40
55771;DHT22;41687;-33.234;-60.334;2022-07-29T08:00:23;6.00;65.20
55771;DHT22;41687;-33.234;-60.334;2022-07-29T08:02:51;6.00;65.50
55771;DHT22;41687;-33.234;-60.334;2022-07-29T08:05:19;6.00;65.50
55771;DHT22;41687;-33.234;-60.334;2022-07-29T08:07:47;5.90;65.30
55771;DHT22;41687;-33.234;-60.334;2022-07-29T08:10:18;5.90;65.00
55771;DHT22;41687;-33.234;-60.334;2022-07-29T08:13:06;5.90;65.10
55771;DHT22;41687;-33.234;-60.334;2022-07-29T08:15:39;5.80;65.20
55771;DHT22;41687;-33.234;-60.334;2022-07-29T08:18:09;5.80;65.50
55771;DHT22;41687;-33.234;-60.334;2022-07-29T08:20:37;5.70;65.80
55771;DHT22;41687;-33.234;-60.334;2022-07-29T08:23:07;5.70;65.70
55771;DHT22;41687;-33.234;-60.334;2022-07-29T08:25:38;5.70;66.00
55771;DHT22;41687;-33.234;-60.334;2022-07-29T08:28:06;5.60;65.60
55771;DHT22;41687;-33.234;-60.334;2022-07-29T08:30:34;5.60;65.80
55771;DHT22;41687;-33.234;-60.334;2022-07-29T08:33:02;5.60;65.90
55771;DHT22;41687;-33.234;-60.334;2022-07-29T08:35:31;5.70;65.70
55771;DHT22;41687;-33.234;-60.334;2022-07-29T08:37:59;5.70;66.10
55771;DHT22;41687;-33.234;-60.334;2022-07-29T08:40:27;5.70;65.90
55771;DHT22;41687;-33.234;-60.334;2022-07-29T08:42:54;5.60;66.10
55771;DHT22;41687;-33.234;-60.334;2022-07-29T08:45:23;5.60;66.10
55771;DHT22;41687;-33.234;-60.334;2022-07-29T08:47:52;5.60;66.00
55771;DHT22;41687;-33.234;-60.334;2022-07-29T08:50:20;5.60;66.60
55771;DHT22;41687;-33.234;-60.334;2022-07-29T08:52:49;5.60;66.10
55771;DHT22;41687;-33.234;-60.334;2022-07-29T08:55:18;5.60;65.70
55771;DHT22;41687;-33.234;-60.334;2022-07-29T08:57:47;5.60;66.10
55771;DHT22;41687;-33.234;-60.334;2022-07-29T09:00:15;5.60;66.10
55771;DHT22;41687;-33.234;-60.334;2022-07-29T09:02:47;5.60;66.10
55771;DHT22;41687;-33.234;-60.334;2022-07-29T09:05:19;5.60;66.30
55771;DHT22;41687;-33.234;-60.334;2022-07-29T09:07:47;5.60;66.40
55771;DHT22;41687;-33.234;-60.334;2022-07-29T09:10:15;5.60;66.00
55771;DHT22;41687;-33.234;-60.334;2022-07-29T09:12:42;5.50;66.00
55771;DHT22;41687;-33.234;-60.334;2022-07-29T09:15:11;5.50;65.90
55771;DHT22;41687;-33.234;-60.334;2022-07-29T09:17:46;5.50;65.90
55771;DHT22;41687;-33.234;-60.334;2022-07-29T09:20:18;5.50;66.20
55771;DHT22;41687;-33.234;-60.334;2022-07-29T09:22:46;5.50;65.90
55771;DHT22;41687;-33.234;-60.334;2022-07-29T09:25:38;5.50;65.60
55771;DHT22;41687;-33.234;-60.334;2022-07-29T09:28:09;5.50;66.50
55771;DHT22;41687;-33.234;-60.334;2022-07-29T09:30:58;5.50;65.70
55771;DHT22;41687;-33.234;-60.334;2022-07-29T09:33:35;5.50;66.20
55771;DHT22;41687;-33.234;-60.334;2022-07-29T09:36:08;5.40;65.80
55771;DHT22;41687;-33.234;-60.334;2022-07-29T09:38:36;5.40;65.60
55771;DHT22;41687;-33.234;-60.334;2022-07-29T09:41:05;5.40;65.60
55771;DHT22;41687;-33.234;-60.334;2022-07-29T09:43:35;5.40;65.90
55771;DHT22;41687;-33.234;-60.334;2022-07-29T09:46:21;5.30;65.90
55771;DHT22;41687;-33.234;-60.334;2022-07-29T09:49:12;5.30;66.50
55771;DHT22;41687;-33.234;-60.334;2022-07-29T09:51:41;5.30;66.50
55771;DHT22;41687;-33.234;-60.334;2022-07-29T09:54:24;5.30;66.00
55771;DHT22;41687;-33.234;-60.334;2022-07-29T09:56:55;5.30;66.50
55771;DHT22;41687;-33.234;-60.334;2022-07-29T09:59:22;5.20;66.10
55771;DHT22;41687;-33.234;-60.334;2022-07-29T10:01:53;5.20;66.50
55771;DHT22;41687;-33.234;-60.334;2022-07-29T10:04:21;5.10;66.50
55771;DHT22;41687;-33.234;-60.334;2022-07-29T10:06:59;5.20;66.50
55771;DHT22;41687;-33.234;-60.334;2022-07-29T10:09:28;5.20;66.60
55771;DHT22;41687;-33.234;-60.334;2022-07-29T10:12:11;5.20;66.40
55771;DHT22;41687;-33.234;-60.334;2022-07-29T10:14:43;5.10;67.00
55771;DHT22;41687;-33.234;-60.334;2022-07-29T10:17:12;5.10;66.50
55771;DHT22;41687;-33.234;-60.334;2022-07-29T10:19:39;5.20;66.50
55771;DHT22;41687;-33.234;-60.334;2022-07-29T10:22:09;5.20;66.10
55771;DHT22;41687;-33.234;-60.334;2022-07-29T10:24:38;5.20;66.20
55771;DHT22;41687;-33.234;-60.334;2022-07-29T10:27:08;5.30;66.20
55771;DHT22;41687;-33.234;-60.334;2022-07-29T10:29:36;5.20;66.20
55771;DHT22;41687;-33.234;-60.334;2022-07-29T10:40:42;5.00;66.70
55771;DHT22;41687;-33.234;-60.334;2022-07-29T10:43:33;5.00;66.80
55771;DHT22;41687;-33.234;-60.334;2022-07-29T10:46:03;4.90;66.80
55771;DHT22;41687;-33.234;-60.334;2022-07-29T10:48:31;4.90;67.00
55771;DHT22;41687;-33.234;-60.334;2022-07-29T10:51:02;4.90;67.30
55771;DHT22;41687;-33.234;-60.334;2022-07-29T10:53:53;4.90;67.10
55771;DHT22;41687;-33.234;-60.334;2022-07-29T10:56:31;5.00;67.40
55771;DHT22;41687;-33.234;-60.334;2022-07-29T11:01:50;5.00;67.60
55771;DHT22;41687;-33.234;-60.334;2022-07-29T11:07:07;5.20;66.90
55771;DHT22;41687;-33.234;-60.334;2022-07-29T11:09:35;5.20;66.70
55771;DHT22;41687;-33.234;-60.334;2022-07-29T11:12:04;5.30;66.40
55771;DHT22;41687;-33.234;-60.334;2022-07-29T11:17:25;5.50;66.90
55771;DHT22;41687;-33.234;-60.334;2022-07-29T11:22:59;5.50;66.40
55771;DHT22;41687;-33.234;-60.334;2022-07-29T11:25:27;5.60;65.80
55771;DHT22;41687;-33.234;-60.334;2022-07-29T11:28:07;6.80;65.20
55771;DHT22;41687;-33.234;-60.334;2022-07-29T11:30:51;8.70;62.10
55771;DHT22;41687;-33.234;-60.334;2022-07-29T11:33:32;10.70;57.00
55771;DHT22;41687;-33.234;-60.334;2022-07-29T11:36:12;12.20;53.60
55771;DHT22;41687;-33.234;-60.334;2022-07-29T11:38:41;13.50;51.00
55771;DHT22;41687;-33.234;-60.334;2022-07-29T11:41:24;14.50;51.00
55771;DHT22;41687;-33.234;-60.334;2022-07-29T11:46:50;16.30;48.60
55771;DHT22;41687;-33.234;-60.334;2022-07-29T11:49:23;17.00;45.60
55771;DHT22;41687;-33.234;-60.334;2022-07-29T11:54:32;18.10;46.20
55771;DHT22;41687;-33.234;-60.334;2022-07-29T11:57:01;18.80;43.10
55771;DHT22;41687;-33.234;-60.334;2022-07-29T11:59:29;19.00;45.50
55771;DHT22;41687;-33.234;-60.334;2022-07-29T12:01:59;19.30;45.10
55771;DHT22;41687;-33.234;-60.334;2022-07-29T12:04:28;19.70;43.20
55771;DHT22;41687;-33.234;-60.334;2022-07-29T12:06:56;20.00;44.30
55771;DHT22;41687;-33.234;-60.334;2022-07-29T12:09:24;20.40;43.30
55771;DHT22;41687;-33.234;-60.334;2022-07-29T12:12:01;20.50;42.80
55771;DHT22;41687;-33.234;-60.334;2022-07-29T12:14:31;20.70;41.20
55771;DHT22;41687;-33.234;-60.334;2022-07-29T12:17:00;20.40;42.30
55771;DHT22;41687;-33.234;-60.334;2022-07-29T12:19:28;20.10;41.60
55771;DHT22;41687;-33.234;-60.334;2022-07-29T12:21:55;19.90;42.00
55771;DHT22;41687;-33.234;-60.334;2022-07-29T12:24:25;19.70;43.40
55771;DHT22;41687;-33.234;-60.334;2022-07-29T12:26:59;19.40;43.60
55771;DHT22;41687;-33.234;-60.334;2022-07-29T12:29:28;19.00;42.10
55771;DHT22;41687;-33.234;-60.334;2022-07-29T12:31:56;18.60;44.20
55771;DHT22;41687;-33.234;-60.334;2022-07-29T12:34:27;18.20;44.30
55771;DHT22;41687;-33.234;-60.334;2022-07-29T12:36:56;18.00;44.60
55771;DHT22;41687;-33.234;-60.334;2022-07-29T12:39:24;17.90;47.40
55771;DHT22;41687;-33.234;-60.334;2022-07-29T12:41:54;17.80;46.20
55771;DHT22;41687;-33.234;-60.334;2022-07-29T12:44:22;17.60;46.10
55771;DHT22;41687;-33.234;-60.334;2022-07-29T12:47:03;17.60;46.90
55771;DHT22;41687;-33.234;-60.334;2022-07-29T12:49:31;17.50;48.30
55771;DHT22;41687;-33.234;-60.334;2022-07-29T12:51:59;17.50;47.70
55771;DHT22;41687;-33.234;-60.334;2022-07-29T12:54:28;17.40;47.40
55771;DHT22;41687;-33.234;-60.334;2022-07-29T12:56:59;17.40;48.10
55771;DHT22;41687;-33.234;-60.334;2022-07-29T12:59:28;17.50;48.20
55771;DHT22;41687;-33.234;-60.334;2022-07-29T13:01:55;17.40;48.70
55771;DHT22;41687;-33.234;-60.334;2022-07-29T13:04:30;17.20;48.70
55771;DHT22;41687;-33.234;-60.334;2022-07-29T13:07:04;16.90;48.20
55771;DHT22;41687;-33.234;-60.334;2022-07-29T13:09:44;16.50;48.80
55771;DHT22;41687;-33.234;-60.334;2022-07-29T13:12:15;16.30;48.80
55771;DHT22;41687;-33.234;-60.334;2022-07-29T13:14:45;16.10;51.00
55771;DHT22;41687;-33.234;-60.334;2022-07-29T13:17:17;15.90;51.00
55771;DHT22;41687;-33.234;-60.334;2022-07-29T13:19:51;15.80;52.00
55771;DHT22;41687;-33.234;-60.334;2022-07-29T13:22:22;15.60;51.70
55771;DHT22;41687;-33.234;-60.334;2022-07-29T13:24:54;15.50;51.50
55771;DHT22;41687;-33.234;-60.334;2022-07-29T13:27:25;15.40;51.50
55771;DHT22;41687;-33.234;-60.334;2022-07-29T13:29:55;15.40;51.70
55771;DHT22;41687;-33.234;-60.334;2022-07-29T13:32:28;15.30;52.20
55771;DHT22;41687;-33.234;-60.334;2022-07-29T13:34:58;15.20;52.20
55771;DHT22;41687;-33.234;-60.334;2022-07-29T13:37:27;15.10;52.40
55771;DHT22;41687;-33.234;-60.334;2022-07-29T13:39:56;15.00;52.00
55771;DHT22;41687;-33.234;-60.334;2022-07-29T13:42:25;14.90;52.50
55771;DHT22;41687;-33.234;-60.334;2022-07-29T13:44:53;15.00;52.30
55771;DHT22;41687;-33.234;-60.334;2022-07-29T13:47:22;15.00;52.10
55771;DHT22;41687;-33.234;-60.334;2022-07-29T13:49:50;15.00;52.50
55771;DHT22;41687;-33.234;-60.334;2022-07-29T13:52:19;15.00;52.40
55771;DHT22;41687;-33.234;-60.334;2022-07-29T13:54:46;15.10;52.80
55771;DHT22;41687;-33.234;-60.334;2022-07-29T13:57:15;15.10;52.30
55771;DHT22;41687;-33.234;-60.334;2022-07-29T13:59:42;15.30;52.50
55771;DHT22;41687;-33.234;-60.334;2022-07-29T14:02:10;15.40;51.70
55771;DHT22;41687;-33.234;-60.334;2022-07-29T14:04:39;15.40;51.80
55771;DHT22;41687;-33.234;-60.334;2022-07-29T14:07:07;15.30;52.00
55771;DHT22;41687;-33.234;-60.334;2022-07-29T14:09:35;15.40;51.70
55771;DHT22;41687;-33.234;-60.334;2022-07-29T14:12:03;15.40;50.90
55771;DHT22;41687;-33.234;-60.334;2022-07-29T14:14:31;15.40;51.60
55771;DHT22;41687;-33.234;-60.334;2022-07-29T14:17:00;15.50;51.20
55771;DHT22;41687;-33.234;-60.334;2022-07-29T14:19:30;15.50;51.40
55771;DHT22;41687;-33.234;-60.334;2022-07-29T14:21:58;15.60;50.40
55771;DHT22;41687;-33.234;-60.334;2022-07-29T14:24:27;15.60;50.90
55771;DHT22;41687;-33.234;-60.334;2022-07-29T14:26:54;15.60;51.20
55771;DHT22;41687;-33.234;-60.334;2022-07-29T14:29:23;15.60;49.90
55771;DHT22;41687;-33.234;-60.334;2022-07-29T14:31:50;15.70;50.10
55771;DHT22;41687;-33.234;-60.334;2022-07-29T14:34:19;15.60;49.60
55771;DHT22;41687;-33.234;-60.334;2022-07-29T14:36:46;15.60;50.70
55771;DHT22;41687;-33.234;-60.334;2022-07-29T14:39:14;15.70;50.30
55771;DHT22;41687;-33.234;-60.334;2022-07-29T14:41:42;15.70;50.10
55771;DHT22;41687;-33.234;-60.334;2022-07-29T14:44:11;15.70;49.10
55771;DHT22;41687;-33.234;-60.334;2022-07-29T14:46:39;15.60;49.60
55771;DHT22;41687;-33.234;-60.334;2022-07-29T14:49:07;15.70;49.10
55771;DHT22;41687;-33.234;-60.334;2022-07-29T14:51:35;15.60;49.10
55771;DHT22;41687;-33.234;-60.334;2022-07-29T14:54:03;15.60;49.00
55771;DHT22;41687;-33.234;-60.334;2022-07-29T14:56:31;15.50;48.80
55771;DHT22;41687;-33.234;-60.334;2022-07-29T14:58:59;15.70;48.70
55771;DHT22;41687;-33.234;-60.334;2022-07-29T15:01:26;15.60;47.60
55771;DHT22;41687;-33.234;-60.334;2022-07-29T15:03:55;15.70;48.50
55771;DHT22;41687;-33.234;-60.334;2022-07-29T15:06:22;15.70;48.00
55771;DHT22;41687;-33.234;-60.334;2022-07-29T15:08:50;15.60;47.50
55771;DHT22;41687;-33.234;-60.334;2022-07-29T15:11:18;15.50;46.90
55771;DHT22;41687;-33.234;-60.334;2022-07-29T15:13:46;15.60;47.60
55771;DHT22;41687;-33.234;-60.334;2022-07-29T15:16:14;15.60;46.80
55771;DHT22;41687;-33.234;-60.334;2022-07-29T15:18:41;15.60;48.30
55771;DHT22;41687;-33.234;-60.334;2022-07-29T15:21:09;15.70;47.60
55771;DHT22;41687;-33.234;-60.334;2022-07-29T15:23:37;15.60;46.30
55771;DHT22;41687;-33.234;-60.334;2022-07-29T15:26:05;15.60;46.80
55771;DHT22;41687;-33.234;-60.334;2022-07-29T15:28:33;15.60;46.40
55771;DHT22;41687;-33.234;-60.334;2022-07-29T15:31:01;15.60;45.90
55771;DHT22;41687;-33.234;-60.334;2022-07-29T15:33:29;15.60;46.40
55771;DHT22;41687;-33.234;-60.334;2022-07-29T15:35:57;15.60;46.50
55771;DHT22;41687;-33.234;-60.334;2022-07-29T15:38:24;15.60;46.30
55771;DHT22;41687;-33.234;-60.334;2022-07-29T15:40:52;15.60;45.80
55771;DHT22;41687;-33.234;-60.334;2022-07-29T15:43:20;15.60;44.70
55771;DHT22;41687;-33.234;-60.334;2022-07-29T15:45:48;15.50;44.60
55771;DHT22;41687;-33.234;-60.334;2022-07-29T15:48:38;15.60;45.40
55771;DHT22;41687;-33.234;-60.334;2022-07-29T15:51:06;15.60;44.80
55771;DHT22;41687;-33.234;-60.334;2022-07-29T15:53:34;15.60;45.10
55771;DHT22;41687;-33.234;-60.334;2022-07-29T15:56:02;15.60;44.90
55771;DHT22;41687;-33.234;-60.334;2022-07-29T15:58:30;15.60;44.90
55771;DHT22;41687;-33.234;-60.334;2022-07-29T16:00:58;15.50;44.90